createdAt,value
2016-11-14T00:00:22.171Z,99.99
2016-11-14T00:01:22.156Z,99.99
2016-11-14T00:02:22.159Z,99.99
2016-11-14T00:03:22.133Z,99.99
2016-11-14T00:04:22.155Z,99.99
2016-11-14T00:05:22.131Z,99.99
2016-11-14T00:06:22.212Z,99.99
2016-11-14T00:07:22.140Z,99.99
2016-11-14T00:08:22.300Z,99.99
2016-11-14T00:09:22.152Z,99.99
2016-11-14T00:10:22.160Z,99.99
2016-11-14T00:11:22.168Z,99.99
2016-11-14T00:12:22.160Z,99.99
2016-11-14T00:13:22.162Z,99.99
2016-11-14T00:14:22.172Z,99.99
2016-11-14T00:15:22.134Z,99.99
2016-11-14T00:16:22.145Z,99.99
2016-11-14T00:17:22.134Z,99.99
2016-11-14T00:18:22.160Z,99.99
2016-11-14T00:19:22.166Z,99.99
2016-11-14T00:20:22.175Z,99.99
2016-11-14T00:21:22.189Z,99.99
2016-11-14T00:22:22.163Z,99.99
2016-11-14T00:23:22.384Z,99.99
2016-11-14T00:24:22.230Z,99.99
2016-11-14T00:25:22.198Z,99.99
2016-11-14T00:26:22.157Z,99.99
2016-11-14T00:27:22.177Z,99.99
2016-11-14T00:28:22.166Z,99.99
2016-11-14T00:29:22.173Z,99.99
2016-11-14T00:30:22.170Z,99.99
2016-11-14T00:31:22.155Z,99.99
2016-11-14T00:32:22.232Z,99.99
2016-11-14T00:33:22.395Z,99.99
2016-11-14T00:34:22.351Z,99.99
2016-11-14T00:35:22.170Z,99.99
2016-11-14T00:36:22.184Z,99.99
2016-11-14T00:37:22.193Z,99.99
2016-11-14T00:38:22.216Z,99.99
2016-11-14T00:39:22.182Z,99.99
2016-11-14T00:40:22.207Z,99.99
2016-11-14T00:41:22.162Z,99.99
2016-11-14T00:42:22.159Z,99.99
2016-11-14T00:43:22.175Z,99.99
2016-11-14T00:44:22.179Z,99.99
2016-11-14T00:45:22.200Z,99.99
2016-11-14T00:46:22.198Z,99.99
2016-11-14T00:47:22.200Z,99.99
2016-11-14T00:48:22.188Z,99.99
2016-11-14T00:49:22.224Z,99.99
2016-11-14T00:50:22.184Z,99.99
2016-11-14T00:51:22.216Z,99.99
2016-11-14T00:52:22.508Z,99.99
2016-11-14T00:53:22.194Z,99.99
2016-11-14T00:54:22.210Z,99.99
2016-11-14T00:55:22.182Z,99.99
2016-11-14T00:56:22.171Z,99.99
2016-11-14T00:57:22.210Z,99.99
2016-11-14T00:58:22.184Z,99.99
2016-11-14T00:59:22.352Z,99.99
2016-11-14T01:00:22.420Z,99.99
2016-11-14T01:01:22.277Z,99.99
2016-11-14T01:02:22.233Z,99.99
2016-11-14T01:03:22.178Z,99.99
2016-11-14T01:04:22.162Z,99.99
2016-11-14T01:05:22.192Z,99.99
2016-11-14T01:06:22.180Z,99.99
2016-11-14T01:07:22.200Z,99.99
2016-11-14T01:08:22.166Z,99.99
2016-11-14T01:09:22.172Z,99.99
2016-11-14T01:10:22.227Z,99.99
2016-11-14T01:11:22.248Z,99.99
2016-11-14T01:12:22.194Z,99.99
2016-11-14T01:13:22.186Z,99.99
2016-11-14T01:14:22.204Z,99.99
2016-11-14T01:15:22.182Z,99.99
2016-11-14T01:16:22.185Z,99.99
2016-11-14T01:17:22.253Z,99.99
2016-11-14T01:18:22.185Z,99.99
2016-11-14T01:19:22.179Z,99.99
2016-11-14T01:20:22.285Z,99.99
2016-11-14T01:21:22.192Z,99.99
2016-11-14T01:22:22.214Z,99.99
2016-11-14T01:23:22.204Z,99.99
2016-11-14T01:24:22.207Z,99.99
2016-11-14T01:25:22.177Z,99.99
2016-11-14T01:26:22.367Z,99.99
2016-11-14T01:27:22.247Z,99.99
2016-11-14T01:28:22.209Z,99.99
2016-11-14T01:29:22.263Z,99.99
2016-11-14T01:30:22.253Z,99.99
2016-11-14T01:31:22.248Z,99.99
2016-11-14T01:32:22.285Z,99.99
2016-11-14T01:33:22.221Z,99.99
2016-11-14T01:34:22.265Z,99.99
2016-11-14T01:35:22.612Z,99.99
2016-11-14T01:36:22.209Z,99.99
2016-11-14T01:37:22.188Z,99.99
2016-11-14T01:38:22.223Z,99.99
2016-11-14T01:39:22.396Z,99.99
2016-11-14T01:40:22.281Z,99.99
2016-11-14T01:41:22.218Z,99.99
2016-11-14T01:42:22.212Z,99.99
2016-11-14T01:43:22.218Z,99.99
2016-11-14T01:44:22.311Z,99.99
2016-11-14T01:45:22.259Z,99.99
2016-11-14T01:46:22.353Z,99.99
2016-11-14T01:47:22.198Z,99.99
2016-11-14T01:48:22.193Z,99.99
2016-11-14T01:49:22.199Z,99.99
2016-11-14T01:50:22.232Z,99.99
2016-11-14T01:51:22.212Z,99.99
2016-11-14T01:52:22.193Z,99.99
2016-11-14T01:53:22.211Z,99.99
2016-11-14T01:54:22.238Z,99.99
2016-11-14T01:55:22.220Z,99.99
2016-11-14T01:56:22.211Z,99.99
2016-11-14T01:57:22.272Z,99.99
2016-11-14T01:58:22.196Z,99.99
2016-11-14T01:59:22.203Z,99.99
2016-11-14T02:00:22.245Z,99.99
2016-11-14T02:01:22.227Z,99.99
2016-11-14T02:02:22.199Z,99.99
2016-11-14T02:03:22.193Z,99.99
2016-11-14T02:04:22.276Z,99.99
2016-11-14T02:05:22.208Z,99.99
2016-11-14T02:06:22.217Z,99.99
2016-11-14T02:07:22.199Z,99.99
2016-11-14T02:08:22.190Z,99.99
2016-11-14T02:09:22.263Z,99.99
2016-11-14T02:10:22.234Z,99.99
2016-11-14T02:11:22.280Z,99.99
2016-11-14T02:12:22.232Z,99.99
2016-11-14T02:13:22.207Z,99.99
2016-11-14T02:14:22.247Z,99.99
2016-11-14T02:15:22.237Z,99.99
2016-11-14T02:16:22.248Z,99.99
2016-11-14T02:17:22.223Z,99.99
2016-11-14T02:18:22.208Z,99.99
2016-11-14T02:19:22.190Z,99.99
2016-11-14T02:20:22.377Z,99.99
2016-11-14T02:21:22.260Z,99.99
2016-11-14T02:22:22.234Z,99.99
2016-11-14T02:23:22.223Z,99.99
2016-11-14T02:24:22.243Z,99.99
2016-11-14T02:25:22.250Z,99.99
2016-11-14T02:26:22.231Z,99.99
2016-11-14T02:27:22.285Z,99.99
2016-11-14T02:28:22.281Z,99.99
2016-11-14T02:29:22.264Z,99.99
2016-11-14T02:30:22.236Z,99.99
2016-11-14T02:31:22.285Z,99.99
2016-11-14T02:32:22.238Z,99.99
2016-11-14T02:33:22.245Z,99.99
2016-11-14T02:34:22.279Z,99.99
2016-11-14T02:35:22.384Z,99.99
2016-11-14T02:36:22.278Z,99.99
2016-11-14T02:37:22.244Z,99.99
2016-11-14T02:38:22.243Z,99.99
2016-11-14T02:39:22.252Z,99.99
2016-11-14T02:40:22.240Z,99.99
2016-11-14T02:41:22.224Z,99.99
2016-11-14T02:42:22.886Z,99.99
2016-11-14T02:43:23.188Z,99.99
2016-11-14T02:44:22.244Z,99.99
2016-11-14T02:45:22.240Z,99.99
2016-11-14T02:46:22.263Z,99.99
2016-11-14T02:47:22.237Z,99.99
2016-11-14T02:48:22.240Z,99.99
2016-11-14T02:49:22.241Z,99.99
2016-11-14T02:50:22.226Z,99.99
2016-11-14T02:51:22.232Z,99.99
2016-11-14T02:52:22.239Z,99.99
2016-11-14T02:53:22.220Z,99.99
2016-11-14T02:54:22.333Z,99.99
2016-11-14T02:55:22.227Z,99.99
2016-11-14T02:56:22.276Z,99.99
2016-11-14T02:57:22.251Z,99.99
2016-11-14T02:58:22.240Z,99.99
2016-11-14T02:59:22.294Z,99.99
2016-11-14T03:00:22.250Z,99.99
2016-11-14T03:01:22.258Z,99.99
2016-11-14T03:02:22.265Z,99.99
2016-11-14T03:03:22.264Z,99.99
2016-11-14T03:04:22.339Z,99.99
2016-11-14T03:05:22.344Z,99.99
2016-11-14T03:06:22.278Z,99.99
2016-11-14T03:07:22.291Z,99.99
2016-11-14T03:08:22.366Z,99.99
2016-11-14T03:09:22.269Z,99.99
2016-11-14T03:10:22.304Z,99.99
2016-11-14T03:11:22.398Z,99.99
2016-11-14T03:12:22.276Z,99.99
2016-11-14T03:13:22.257Z,99.99
2016-11-14T03:14:22.270Z,99.99
2016-11-14T03:15:22.321Z,99.99
2016-11-14T03:16:22.289Z,99.99
2016-11-14T03:17:22.241Z,99.99
2016-11-14T03:18:22.268Z,99.99
2016-11-14T03:19:22.327Z,99.99
2016-11-14T03:20:22.248Z,99.99
2016-11-14T03:21:22.252Z,99.99
2016-11-14T03:22:22.259Z,99.99
2016-11-14T03:23:22.251Z,99.99
2016-11-14T03:24:22.258Z,99.99
2016-11-14T03:25:22.271Z,99.99
2016-11-14T03:26:22.303Z,99.99
2016-11-14T03:27:22.441Z,99.99
2016-11-14T03:28:22.280Z,99.99
2016-11-14T03:29:22.271Z,99.99
2016-11-14T03:30:22.274Z,99.99
2016-11-14T03:31:22.498Z,99.99
2016-11-14T03:32:22.313Z,99.99
2016-11-14T03:33:22.248Z,99.99
2016-11-14T03:34:22.242Z,99.99
2016-11-14T03:35:22.336Z,99.99
2016-11-14T03:36:22.327Z,99.99
2016-11-14T03:37:22.296Z,99.99
2016-11-14T03:38:22.429Z,99.99
2016-11-14T03:39:22.293Z,99.99
2016-11-14T03:40:22.403Z,99.99
2016-11-14T03:41:22.329Z,99.99
2016-11-14T03:42:22.284Z,99.99
2016-11-14T03:43:22.264Z,99.99
2016-11-14T03:44:22.371Z,99.99
2016-11-14T03:45:22.431Z,99.99
2016-11-14T03:46:22.284Z,99.99
2016-11-14T03:47:22.271Z,99.99
2016-11-14T03:48:22.284Z,99.99
2016-11-14T03:49:22.353Z,99.99
2016-11-14T03:50:22.328Z,99.99
2016-11-14T03:51:22.322Z,99.99
2016-11-14T03:52:22.524Z,99.99
2016-11-14T03:53:22.286Z,99.99
2016-11-14T03:54:22.306Z,99.99
2016-11-14T03:55:22.313Z,99.99
2016-11-14T03:56:22.284Z,99.99
2016-11-14T03:57:22.326Z,99.99
2016-11-14T03:58:22.374Z,99.99
2016-11-14T03:59:22.294Z,99.99
2016-11-14T04:00:22.330Z,99.99
2016-11-14T04:01:22.314Z,99.99
2016-11-14T04:02:22.298Z,99.99
2016-11-14T04:03:22.279Z,99.99
2016-11-14T04:04:22.306Z,99.99
2016-11-14T04:05:22.291Z,99.99
2016-11-14T04:06:22.436Z,99.99
2016-11-14T04:07:22.336Z,99.99
2016-11-14T04:08:22.269Z,99.99
2016-11-14T04:09:22.292Z,99.99
2016-11-14T04:10:22.328Z,99.99
2016-11-14T04:11:22.338Z,99.99
2016-11-14T04:12:22.278Z,99.99
2016-11-14T04:13:22.281Z,99.99
2016-11-14T04:14:22.360Z,99.99
2016-11-14T04:15:22.430Z,99.99
2016-11-14T04:16:22.276Z,99.99
2016-11-14T04:17:22.297Z,99.99
2016-11-14T04:18:22.339Z,99.99
2016-11-14T04:19:22.305Z,99.99
2016-11-14T04:20:22.358Z,99.99
2016-11-14T04:21:22.450Z,99.99
2016-11-14T04:22:22.322Z,99.99
2016-11-14T04:23:22.336Z,99.99
2016-11-14T04:24:22.343Z,99.99
2016-11-14T04:25:22.536Z,99.99
2016-11-14T04:26:22.295Z,99.99
2016-11-14T04:27:22.403Z,99.99
2016-11-14T04:28:22.378Z,99.99
2016-11-14T04:29:22.301Z,99.99
2016-11-14T04:30:22.339Z,99.99
2016-11-14T04:31:22.407Z,99.99
2016-11-14T04:32:22.344Z,99.99
2016-11-14T04:33:22.301Z,99.99
2016-11-14T04:34:22.343Z,99.99
2016-11-14T04:35:22.314Z,99.99
2016-11-14T04:36:22.506Z,99.99
2016-11-14T04:37:22.424Z,99.99
2016-11-14T04:38:22.372Z,99.99
2016-11-14T04:39:22.370Z,99.99
2016-11-14T04:40:22.315Z,99.99
2016-11-14T04:41:22.372Z,99.99
2016-11-14T04:42:22.363Z,99.99
2016-11-14T04:43:22.314Z,99.99
2016-11-14T04:44:22.343Z,99.99
2016-11-14T04:45:22.321Z,99.99
2016-11-14T04:46:22.299Z,99.99
2016-11-14T04:47:22.285Z,99.99
2016-11-14T04:48:22.318Z,99.99
2016-11-14T04:49:22.300Z,99.99
2016-11-14T04:50:22.306Z,99.99
2016-11-14T04:51:22.312Z,99.99
2016-11-14T04:52:22.321Z,99.99
2016-11-14T04:53:22.297Z,99.99
2016-11-14T04:54:22.320Z,99.99
2016-11-14T04:55:22.295Z,99.99
2016-11-14T04:56:22.321Z,99.99
2016-11-14T04:57:22.311Z,99.99
2016-11-14T04:58:22.331Z,99.99
2016-11-14T04:59:22.321Z,99.99
2016-11-14T05:00:22.302Z,99.99
2016-11-14T05:01:22.335Z,99.99
2016-11-14T05:02:22.308Z,99.99
2016-11-14T05:03:22.289Z,99.99
2016-11-14T05:04:22.315Z,99.99
2016-11-14T05:05:22.332Z,99.99
2016-11-14T05:06:22.342Z,99.99
2016-11-14T05:07:22.325Z,99.99
2016-11-14T05:08:22.328Z,99.99
2016-11-14T05:09:22.334Z,99.99
2016-11-14T05:10:22.326Z,99.99
2016-11-14T05:11:22.338Z,99.99
2016-11-14T05:12:22.322Z,99.99
2016-11-14T05:13:22.345Z,99.99
2016-11-14T05:14:22.324Z,99.99
2016-11-14T05:15:22.319Z,99.99
2016-11-14T05:16:22.327Z,99.99
2016-11-14T05:17:22.300Z,99.99
2016-11-14T05:18:22.347Z,99.99
2016-11-14T05:19:22.315Z,99.99
2016-11-14T05:20:22.321Z,99.99
2016-11-14T05:21:22.343Z,99.99
2016-11-14T05:22:22.335Z,99.99
2016-11-14T05:23:22.323Z,99.99
2016-11-14T05:24:22.368Z,99.99
2016-11-14T05:25:22.327Z,99.99
2016-11-14T05:26:22.359Z,99.99
2016-11-14T05:27:22.334Z,99.99
2016-11-14T05:28:22.318Z,99.99
2016-11-14T05:29:22.343Z,99.99
2016-11-14T05:30:22.335Z,99.99
2016-11-14T05:31:22.354Z,99.99
2016-11-14T05:32:22.347Z,99.99
2016-11-14T05:33:22.341Z,99.99
2016-11-14T05:34:22.334Z,99.99
2016-11-14T05:35:22.342Z,99.99
2016-11-14T05:36:22.347Z,99.99
2016-11-14T05:37:22.332Z,99.99
2016-11-14T05:38:22.326Z,99.99
2016-11-14T05:39:22.347Z,99.99
2016-11-14T05:40:22.339Z,99.99
2016-11-14T05:41:22.343Z,99.99
2016-11-14T05:42:22.325Z,99.99
2016-11-14T05:43:22.373Z,99.99
2016-11-14T05:44:22.340Z,99.99
2016-11-14T05:45:22.319Z,99.99
2016-11-14T05:46:22.339Z,99.99
2016-11-14T05:47:22.377Z,99.99
2016-11-14T05:48:22.338Z,99.99
2016-11-14T05:49:22.318Z,99.99
2016-11-14T05:50:22.335Z,99.99
2016-11-14T05:51:22.330Z,99.99
2016-11-14T05:52:22.995Z,99.99
2016-11-14T05:53:22.336Z,99.99
2016-11-14T05:54:22.334Z,99.99
2016-11-14T05:55:22.328Z,99.99
2016-11-14T05:56:22.345Z,99.99
2016-11-14T05:57:22.354Z,99.99
2016-11-14T05:58:22.329Z,99.99
2016-11-14T05:59:22.340Z,99.99
2016-11-14T06:00:22.390Z,99.99
2016-11-14T06:01:22.389Z,99.99
2016-11-14T06:02:22.344Z,99.99
2016-11-14T06:03:22.373Z,99.99
2016-11-14T06:04:22.341Z,99.99
2016-11-14T06:05:22.365Z,99.99
2016-11-14T06:06:22.353Z,99.99
2016-11-14T06:07:22.383Z,99.99
2016-11-14T06:08:22.379Z,99.99
2016-11-14T06:09:22.380Z,99.99
2016-11-14T06:10:22.367Z,99.99
2016-11-14T06:11:22.398Z,99.99
2016-11-14T06:12:22.346Z,99.99
2016-11-14T06:13:22.370Z,99.99
2016-11-14T06:14:22.373Z,99.99
2016-11-14T06:15:22.370Z,99.99
2016-11-14T06:16:22.377Z,99.99
2016-11-14T06:17:22.369Z,99.99
2016-11-14T06:18:22.352Z,99.99
2016-11-14T06:19:22.347Z,99.99
2016-11-14T06:20:22.401Z,99.99
2016-11-14T06:21:22.385Z,99.99
2016-11-14T06:22:22.353Z,99.99
2016-11-14T06:23:22.393Z,99.99
2016-11-14T06:24:22.325Z,99.99
2016-11-14T06:25:22.376Z,99.99
2016-11-14T06:26:22.383Z,99.99
2016-11-14T06:27:22.351Z,99.99
2016-11-14T06:28:22.354Z,99.99
2016-11-14T06:29:22.362Z,99.99
2016-11-14T06:30:22.353Z,99.99
2016-11-14T06:31:22.359Z,99.99
2016-11-14T06:32:22.380Z,99.99
2016-11-14T06:33:22.382Z,99.99
2016-11-14T06:34:22.343Z,99.99
2016-11-14T06:35:22.364Z,99.99
2016-11-14T06:36:22.376Z,99.99
2016-11-14T06:37:22.404Z,99.99
2016-11-14T06:38:22.376Z,99.99
2016-11-14T06:39:22.375Z,99.99
2016-11-14T06:40:22.357Z,99.99
2016-11-14T06:41:22.372Z,99.99
2016-11-14T06:42:22.356Z,99.99
2016-11-14T06:43:22.371Z,99.99
2016-11-14T06:44:22.364Z,99.99
2016-11-14T06:45:22.388Z,99.99
2016-11-14T06:46:22.378Z,99.99
2016-11-14T06:47:22.439Z,99.99
2016-11-14T06:48:22.372Z,99.99
2016-11-14T06:49:22.398Z,99.99
2016-11-14T06:50:22.423Z,99.99
2016-11-14T06:51:22.400Z,99.99
2016-11-14T06:52:22.359Z,99.99
2016-11-14T06:53:22.392Z,99.99
2016-11-14T06:54:22.355Z,99.99
2016-11-14T06:55:22.381Z,99.99
2016-11-14T06:56:22.423Z,99.99
2016-11-14T06:57:22.399Z,99.99
2016-11-14T06:58:22.392Z,99.99
2016-11-14T06:59:22.392Z,99.99
2016-11-14T07:00:22.413Z,99.99
2016-11-14T07:01:22.398Z,99.99
2016-11-14T07:02:22.404Z,99.99
2016-11-14T07:03:22.397Z,99.99
2016-11-14T07:04:22.418Z,99.99
2016-11-14T07:05:22.411Z,99.99
2016-11-14T07:06:22.782Z,99.99
2016-11-14T07:07:22.368Z,99.99
2016-11-14T07:08:22.362Z,99.99
2016-11-14T07:09:22.806Z,99.99
2016-11-14T07:10:22.373Z,99.99
2016-11-14T07:11:22.396Z,99.99
2016-11-14T07:12:22.389Z,99.99
2016-11-14T07:13:22.379Z,99.99
2016-11-14T07:14:22.370Z,99.99
2016-11-14T07:15:22.377Z,99.99
2016-11-14T07:16:22.371Z,99.99
2016-11-14T07:17:22.397Z,99.99
2016-11-14T07:18:22.382Z,99.99
2016-11-14T07:19:22.390Z,99.99
2016-11-14T07:20:22.383Z,99.99
2016-11-14T07:21:22.417Z,99.99
2016-11-14T07:22:22.410Z,99.99
2016-11-14T07:23:22.406Z,99.99
2016-11-14T07:24:22.378Z,99.99
2016-11-14T07:25:22.398Z,99.99
2016-11-14T07:26:22.400Z,99.99
2016-11-14T07:27:22.443Z,99.99
2016-11-14T07:28:22.436Z,99.99
2016-11-14T07:29:22.425Z,99.99
2016-11-14T07:30:22.413Z,99.99
2016-11-14T07:31:22.409Z,99.99
2016-11-14T07:32:22.420Z,99.99
2016-11-14T07:33:22.435Z,99.99
2016-11-14T07:34:22.441Z,99.99
2016-11-14T07:35:22.432Z,99.99
2016-11-14T07:36:22.424Z,99.99
2016-11-14T07:37:22.433Z,99.99
2016-11-14T07:38:22.505Z,99.99
2016-11-14T07:39:22.387Z,99.99
2016-11-14T07:40:22.434Z,99.99
2016-11-14T07:41:22.384Z,99.99
2016-11-14T07:42:22.404Z,99.99
2016-11-14T07:43:22.400Z,99.99
2016-11-14T07:44:22.416Z,99.99
2016-11-14T07:45:22.384Z,99.99
2016-11-14T07:46:22.394Z,99.99
2016-11-14T07:47:22.411Z,99.99
2016-11-14T07:48:22.406Z,99.99
2016-11-14T07:49:22.409Z,99.99
2016-11-14T07:50:22.407Z,99.99
2016-11-14T07:51:22.423Z,99.99
2016-11-14T07:52:22.432Z,99.99
2016-11-14T07:53:22.452Z,99.99
2016-11-14T07:54:22.398Z,99.99
2016-11-14T07:55:22.392Z,99.99
2016-11-14T07:56:22.387Z,99.99
2016-11-14T07:57:22.400Z,99.99
2016-11-14T07:58:22.400Z,99.99
2016-11-14T07:59:22.413Z,99.99
2016-11-14T08:00:22.383Z,99.99
2016-11-14T08:01:22.422Z,99.99
2016-11-14T08:02:22.424Z,99.99
2016-11-14T08:03:22.427Z,99.99
2016-11-14T08:04:22.410Z,99.99
2016-11-14T08:05:22.457Z,99.99
2016-11-14T08:06:22.432Z,99.99
2016-11-14T08:07:22.546Z,99.99
2016-11-14T08:08:22.441Z,99.99
2016-11-14T08:09:22.437Z,99.99
2016-11-14T08:10:22.787Z,99.99
2016-11-14T08:11:22.416Z,99.99
2016-11-14T08:12:22.411Z,99.99
2016-11-14T08:13:22.462Z,99.99
2016-11-14T08:14:22.430Z,99.99
2016-11-14T08:15:22.408Z,99.99
2016-11-14T08:16:22.400Z,99.99
2016-11-14T08:17:22.428Z,99.99
2016-11-14T08:18:22.457Z,99.99
2016-11-14T08:19:22.427Z,99.99
2016-11-14T08:20:22.494Z,99.99
2016-11-14T08:21:22.465Z,99.99
2016-11-14T08:22:22.509Z,99.99
2016-11-14T08:23:22.486Z,99.99
2016-11-14T08:24:22.477Z,99.99
2016-11-14T08:25:22.497Z,99.99
2016-11-14T08:26:22.459Z,99.99
2016-11-14T08:27:22.454Z,99.99
2016-11-14T08:28:22.454Z,99.99
2016-11-14T08:29:22.467Z,99.99
2016-11-14T08:30:22.433Z,99.99
2016-11-14T08:31:22.447Z,99.99
2016-11-14T08:32:22.455Z,99.99
2016-11-14T08:33:22.476Z,99.99
2016-11-14T08:34:22.497Z,99.99
2016-11-14T08:35:22.505Z,99.99
2016-11-14T08:36:22.460Z,99.99
2016-11-14T08:37:22.464Z,99.99
2016-11-14T08:38:22.509Z,99.99
2016-11-14T08:39:22.457Z,99.99
2016-11-14T08:40:22.462Z,99.99
2016-11-14T08:41:22.494Z,99.99
2016-11-14T08:42:22.518Z,99.99
2016-11-14T08:43:22.461Z,99.99
2016-11-14T08:44:22.449Z,99.99
2016-11-14T08:45:22.443Z,99.99
2016-11-14T08:46:22.732Z,99.99
2016-11-14T08:47:22.419Z,99.99
2016-11-14T08:48:22.477Z,99.99
2016-11-14T08:49:22.438Z,99.99
2016-11-14T08:50:22.471Z,99.99
2016-11-14T08:51:23.132Z,99.99
2016-11-14T08:52:22.454Z,99.99
2016-11-14T08:53:22.468Z,99.99
2016-11-14T08:54:22.472Z,99.99
2016-11-14T08:55:22.465Z,99.99
2016-11-14T08:56:22.459Z,99.99
2016-11-14T08:57:22.452Z,99.99
2016-11-14T08:58:22.473Z,99.99
2016-11-14T08:59:22.465Z,99.99
2016-11-14T09:00:22.436Z,99.99
2016-11-14T09:01:22.444Z,99.99
2016-11-14T09:02:22.464Z,99.99
2016-11-14T09:03:22.471Z,99.99
2016-11-14T09:04:22.474Z,99.99
2016-11-14T09:05:22.470Z,99.99
2016-11-14T09:06:22.451Z,99.99
2016-11-14T09:07:22.455Z,99.99
2016-11-14T09:08:22.463Z,99.99
2016-11-14T09:09:22.457Z,99.99
2016-11-14T09:10:22.432Z,99.99
2016-11-14T09:11:22.442Z,99.99
2016-11-14T09:12:22.477Z,99.99
2016-11-14T09:13:22.464Z,99.99
2016-11-14T09:14:22.506Z,99.99
2016-11-14T09:15:22.481Z,99.99
2016-11-14T09:16:22.474Z,99.99
2016-11-14T09:17:22.461Z,99.99
2016-11-14T09:18:22.476Z,99.99
2016-11-14T09:19:22.495Z,99.99
2016-11-14T09:20:22.525Z,99.99
2016-11-14T09:21:22.470Z,99.99
2016-11-14T09:22:22.467Z,99.99
2016-11-14T09:23:22.476Z,99.99
2016-11-14T09:24:22.474Z,99.99
2016-11-14T09:25:22.518Z,99.99
2016-11-14T09:26:22.489Z,99.99
2016-11-14T09:27:22.463Z,99.99
2016-11-14T09:28:22.483Z,99.99
2016-11-14T09:29:22.475Z,99.99
2016-11-14T09:30:22.471Z,99.99
2016-11-14T09:31:22.502Z,99.99
2016-11-14T09:32:22.486Z,99.99
2016-11-14T09:33:22.486Z,99.99
2016-11-14T09:34:22.480Z,99.99
2016-11-14T09:35:22.462Z,99.99
2016-11-14T09:36:22.458Z,99.99
2016-11-14T09:37:22.461Z,99.99
2016-11-14T09:38:22.480Z,99.99
2016-11-14T09:39:22.499Z,99.99
2016-11-14T09:40:22.505Z,99.99
2016-11-14T09:41:22.499Z,99.99
2016-11-14T09:42:22.500Z,99.99
2016-11-14T09:43:22.491Z,99.99
2016-11-14T09:44:22.496Z,99.99
2016-11-14T09:45:22.512Z,99.99
2016-11-14T09:46:22.503Z,99.99
2016-11-14T09:47:22.479Z,99.99
2016-11-14T09:48:22.515Z,99.99
2016-11-14T09:49:22.521Z,99.99
2016-11-14T09:50:22.483Z,99.99
2016-11-14T09:51:22.496Z,99.99
2016-11-14T09:52:22.514Z,99.99
2016-11-14T09:53:22.521Z,99.99
2016-11-14T09:54:22.497Z,99.99
2016-11-14T09:55:22.502Z,99.99
2016-11-14T09:56:22.492Z,99.99
2016-11-14T09:57:22.475Z,99.99
2016-11-14T09:58:22.543Z,99.99
2016-11-14T09:59:22.493Z,99.99
2016-11-14T10:00:22.486Z,99.99
2016-11-14T10:01:22.491Z,99.99
2016-11-14T10:02:22.497Z,99.99
2016-11-14T10:03:22.520Z,99.99
2016-11-14T10:04:22.524Z,99.99
2016-11-14T10:05:22.504Z,99.99
2016-11-14T10:06:22.527Z,99.99
2016-11-14T10:07:22.490Z,99.99
2016-11-14T10:08:22.524Z,99.99
2016-11-14T10:09:22.516Z,99.99
2016-11-14T10:10:22.500Z,99.99
2016-11-14T10:11:22.507Z,99.99
2016-11-14T10:12:22.503Z,99.99
2016-11-14T10:13:22.518Z,99.99
2016-11-14T10:14:22.582Z,99.99
2016-11-14T10:15:22.486Z,99.99
2016-11-14T10:16:22.509Z,99.99
2016-11-14T10:17:22.499Z,99.99
2016-11-14T10:18:22.574Z,99.99
2016-11-14T10:19:22.509Z,99.99
2016-11-14T10:20:22.490Z,99.99
2016-11-14T10:21:22.486Z,99.99
2016-11-14T10:22:22.488Z,99.99
2016-11-14T10:23:22.519Z,99.99
2016-11-14T10:24:22.504Z,99.99
2016-11-14T10:25:22.506Z,99.99
2016-11-14T10:26:22.507Z,99.99
2016-11-14T10:27:22.514Z,99.99
2016-11-14T10:28:22.535Z,99.99
2016-11-14T10:29:22.494Z,99.68
2016-11-14T10:30:22.509Z,99.99
2016-11-14T10:31:22.512Z,99.99
2016-11-14T10:32:22.545Z,99.99
2016-11-14T10:33:22.509Z,99.99
2016-11-14T10:34:22.518Z,99.99
2016-11-14T10:35:22.512Z,99.96
2016-11-14T10:36:22.531Z,99.99
2016-11-14T10:37:22.566Z,98.73
2016-11-14T10:38:22.562Z,97.69
2016-11-14T10:39:22.522Z,96.92
2016-11-14T10:40:22.515Z,97.31
2016-11-14T10:41:22.537Z,97.02
2016-11-14T10:42:22.531Z,96.83
2016-11-14T10:43:22.592Z,98.07
2016-11-14T10:44:22.532Z,96.64
2016-11-14T10:45:22.563Z,98.63
2016-11-14T10:46:22.532Z,98.54
2016-11-14T10:47:22.517Z,95.22
2016-11-14T10:48:22.564Z,94.08
2016-11-14T10:49:22.522Z,93.13
2016-11-14T10:50:22.530Z,94.08
2016-11-14T10:51:22.503Z,94.84
2016-11-14T10:52:22.525Z,96.26
2016-11-14T10:53:22.519Z,94.98
2016-11-14T10:54:22.622Z,94.18
2016-11-14T10:55:22.528Z,93.94
2016-11-14T10:56:22.538Z,93.56
2016-11-14T10:57:22.526Z,93.46
2016-11-14T10:58:22.537Z,92.71
2016-11-14T10:59:22.573Z,92.8
2016-11-14T11:00:22.547Z,92.9
2016-11-14T11:01:22.535Z,93.27
2016-11-14T11:02:22.550Z,93.27
2016-11-14T11:03:22.554Z,92.8
2016-11-14T11:04:22.592Z,91.94
2016-11-14T11:05:22.552Z,91
2016-11-14T11:06:22.606Z,91.66
2016-11-14T11:07:22.555Z,91.09
2016-11-14T11:08:22.583Z,91
2016-11-14T11:09:22.600Z,91.94
2016-11-14T11:10:22.580Z,90.71
2016-11-14T11:11:22.616Z,89.48
2016-11-14T11:12:22.661Z,89
2016-11-14T11:13:22.549Z,89.67
2016-11-14T11:14:22.596Z,89
2016-11-14T11:15:22.650Z,87.68
2016-11-14T11:16:22.585Z,88.91
2016-11-14T11:17:22.545Z,88.81
2016-11-14T11:18:22.567Z,88.72
2016-11-14T11:19:22.535Z,88.72
2016-11-14T11:20:22.639Z,87.96
2016-11-14T11:21:22.660Z,88.15
2016-11-14T11:22:22.557Z,87.68
2016-11-14T11:23:22.557Z,87.2
2016-11-14T11:24:22.557Z,85.49
2016-11-14T11:25:22.541Z,87.01
2016-11-14T11:26:23.777Z,87.49
2016-11-14T11:27:22.562Z,86.96
2016-11-14T11:28:22.577Z,87.24
2016-11-14T11:29:22.551Z,87.43
2016-11-14T11:30:22.567Z,87.62
2016-11-14T11:31:22.547Z,88.39
2016-11-14T11:32:22.546Z,87.72
2016-11-14T11:33:22.555Z,87.15
2016-11-14T11:34:22.562Z,85.91
2016-11-14T11:35:22.544Z,84.87
2016-11-14T11:36:22.611Z,84.68
2016-11-14T11:37:22.551Z,84.01
2016-11-14T11:38:22.564Z,84.49
2016-11-14T11:39:22.551Z,84.21
2016-11-14T11:40:22.574Z,84.21
2016-11-14T11:41:22.567Z,84.68
2016-11-14T11:42:22.568Z,85.06
2016-11-14T11:43:22.570Z,84.3
2016-11-14T11:44:22.545Z,84.3
2016-11-14T11:45:22.567Z,84.01
2016-11-14T11:46:22.569Z,84.3
2016-11-14T11:47:22.546Z,83.64
2016-11-14T11:48:23.176Z,83.16
2016-11-14T11:49:22.955Z,82.88
2016-11-14T11:50:22.840Z,82.88
2016-11-14T11:51:22.628Z,82.78
2016-11-14T11:52:22.560Z,83.92
2016-11-14T11:53:22.594Z,83.92
2016-11-14T11:54:22.618Z,83.64
2016-11-14T11:55:22.666Z,84.49
2016-11-14T11:56:22.607Z,85.16
2016-11-14T11:57:22.606Z,85.53
2016-11-14T11:58:22.583Z,84.59
2016-11-14T11:59:22.584Z,85.82
2016-11-14T12:00:22.635Z,86.2
2016-11-14T12:01:22.584Z,86.3
2016-11-14T12:02:22.610Z,85.91
2016-11-14T12:03:22.556Z,85.72
2016-11-14T12:04:22.545Z,85.44
2016-11-14T12:05:22.601Z,85.06
2016-11-14T12:06:22.590Z,84.59
2016-11-14T12:07:22.693Z,84.4
2016-11-14T12:08:22.573Z,84.21
2016-11-14T12:09:22.583Z,84.11
2016-11-14T12:10:22.605Z,84.49
2016-11-14T12:11:22.564Z,84.01
2016-11-14T12:12:22.605Z,84.68
2016-11-14T12:13:22.565Z,84.01
2016-11-14T12:14:22.578Z,84.21
2016-11-14T12:15:22.633Z,84.4
2016-11-14T12:16:22.570Z,84.3
2016-11-14T12:17:22.564Z,84.21
2016-11-14T12:18:22.774Z,84.4
2016-11-14T12:19:23.153Z,84.11
2016-11-14T12:20:22.615Z,84.49
2016-11-14T12:21:22.620Z,84.11
2016-11-14T12:22:22.601Z,84.49
2016-11-14T12:23:22.637Z,84.59
2016-11-14T12:24:22.612Z,84.4
2016-11-14T12:25:22.611Z,84.21
2016-11-14T12:26:22.630Z,83.83
2016-11-14T12:27:22.609Z,83.92
2016-11-14T12:28:22.609Z,84.21
2016-11-14T12:29:22.631Z,84.01
2016-11-14T12:30:22.686Z,83.64
2016-11-14T12:31:22.660Z,83.83
2016-11-14T12:32:22.624Z,83.45
2016-11-14T12:33:22.601Z,82.88
2016-11-14T12:34:22.696Z,83.07
2016-11-14T12:35:22.609Z,82.88
2016-11-14T12:36:22.622Z,82.97
2016-11-14T12:37:22.621Z,83.45
2016-11-14T12:38:22.667Z,82.31
2016-11-14T12:39:22.688Z,82.12
2016-11-14T12:40:22.598Z,82.03
2016-11-14T12:41:22.614Z,81.59
2016-11-14T12:42:22.591Z,81.17
2016-11-14T12:43:22.598Z,80.6
2016-11-14T12:44:22.591Z,81.26
2016-11-14T12:45:22.612Z,81.26
2016-11-14T12:46:22.633Z,81.36
2016-11-14T12:47:22.739Z,81.26
2016-11-14T12:48:22.615Z,81.36
2016-11-14T12:49:22.622Z,81.36
2016-11-14T12:50:22.710Z,82.12
2016-11-14T12:51:22.784Z,81.74
2016-11-14T12:52:22.586Z,81.65
2016-11-14T12:53:22.620Z,81.26